GCLA

La Palma Airport

Sta Cruz de la Palma, La Palma Island, Spain
METAR GCLA 212230Z AUTO 26004KT 9999 NCD 18/12 Q1017
Observed Flight Rules
Apr-21 @ 22:30 UTC (35 minutes ago) Visual Flight Rules
Wind Visibility Clouds
260° at 4 knots 10,000+ meters
  • Clear skies
Temperatures Readings
Current 18°C / 64°F
Dewpoint 12°C / 54°F
Humidity 68%
Altimeter 30.03" Hg
Pressure 1017 hPa
Elevation 31
METAR GCLA 212230Z AUTO 26004KT 9999 NCD 18/12 Q1017
Observed Flight Rules
Apr-21 @ 22:30 UTC
(35 minutes ago)
VFR
Wind Visibility
260° at 4 knots 10,000+ meters
Clouds
  • Clear skies
Temperature Dewpoint
18°C / 64°F 12°C / 54°F
Humidity Altimeter Pressure
68% 30.03" Hg 1017 hPa